sensor_id;sensor_type;location;lat;lon;timestamp;pressure;altitude;pressure_sealevel;temperature;humidity
16461;BME280;8341;42.048;24.650;2024-01-11T00:00:44;98314.41;;;-1.56;100.00
16461;BME280;8341;42.048;24.650;2024-01-11T00:03:11;98316.97;;;-1.67;100.00
16461;BME280;8341;42.048;24.650;2024-01-11T00:05:38;98315.19;;;-1.59;100.00
16461;BME280;8341;42.048;24.650;2024-01-11T00:08:06;98312.06;;;-1.61;100.00
16461;BME280;8341;42.048;24.650;2024-01-11T00:10:33;98307.38;;;-1.71;100.00
16461;BME280;8341;42.048;24.650;2024-01-11T00:13:00;98323.03;;;-1.73;100.00
16461;BME280;8341;42.048;24.650;2024-01-11T00:15:27;98310.38;;;-1.76;100.00
16461;BME280;8341;42.048;24.650;2024-01-11T00:17:54;98308.66;;;-1.92;100.00
16461;BME280;8341;42.048;24.650;2024-01-11T00:20:21;98301.44;;;-1.91;100.00
16461;BME280;8341;42.048;24.650;2024-01-11T00:22:48;98304.25;;;-1.77;100.00
16461;BME280;8341;42.048;24.650;2024-01-11T00:25:17;98298.88;;;-1.80;100.00
16461;BME280;8341;42.048;24.650;2024-01-11T00:27:44;98287.88;;;-2.05;100.00
16461;BME280;8341;42.048;24.650;2024-01-11T00:30:11;98284.56;;;-1.95;100.00
16461;BME280;8341;42.048;24.650;2024-01-11T00:32:38;98286.63;;;-1.85;100.00
16461;BME280;8341;42.048;24.650;2024-01-11T00:35:06;98280.91;;;-1.83;100.00
16461;BME280;8341;42.048;24.650;2024-01-11T00:37:33;98282.44;;;-1.82;100.00
16461;BME280;8341;42.048;24.650;2024-01-11T00:40:00;98269.22;;;-2.02;100.00
16461;BME280;8341;42.048;24.650;2024-01-11T00:42:28;98268.81;;;-2.04;100.00
16461;BME280;8341;42.048;24.650;2024-01-11T00:44:55;98264.00;;;-2.21;100.00
16461;BME280;8341;42.048;24.650;2024-01-11T00:47:22;98251.22;;;-2.38;100.00
16461;BME280;8341;42.048;24.650;2024-01-11T00:49:49;98251.72;;;-2.29;100.00
16461;BME280;8341;42.048;24.650;2024-01-11T00:52:16;98252.19;;;-2.20;100.00
16461;BME280;8341;42.048;24.650;2024-01-11T00:54:43;98251.88;;;-2.15;100.00
16461;BME280;8341;42.048;24.650;2024-01-11T00:57:10;98250.00;;;-2.14;100.00
16461;BME280;8341;42.048;24.650;2024-01-11T00:59:39;98253.97;;;-2.31;100.00
16461;BME280;8341;42.048;24.650;2024-01-11T01:02:06;98251.22;;;-2.38;100.00
16461;BME280;8341;42.048;24.650;2024-01-11T01:04:34;98246.25;;;-2.36;100.00
16461;BME280;8341;42.048;24.650;2024-01-11T01:07:03;98255.88;;;-2.31;100.00
16461;BME280;8341;42.048;24.650;2024-01-11T01:09:31;98253.75;;;-2.19;100.00
16461;BME280;8341;42.048;24.650;2024-01-11T01:11:58;98254.94;;;-2.16;100.00
16461;BME280;8341;42.048;24.650;2024-01-11T01:14:25;98246.28;;;-2.06;100.00
16461;BME280;8341;42.048;24.650;2024-01-11T01:16:53;98240.47;;;-2.12;100.00
16461;BME280;8341;42.048;24.650;2024-01-11T01:19:20;98237.41;;;-2.14;100.00
16461;BME280;8341;42.048;24.650;2024-01-11T01:21:47;98238.19;;;-2.10;100.00
16461;BME280;8341;42.048;24.650;2024-01-11T01:24:14;98231.75;;;-2.05;100.00
16461;BME280;8341;42.048;24.650;2024-01-11T01:26:41;98233.69;;;-2.06;100.00
16461;BME280;8341;42.048;24.650;2024-01-11T01:29:08;98231.28;;;-2.14;100.00
16461;BME280;8341;42.048;24.650;2024-01-11T01:31:35;98229.28;;;-2.21;100.00
16461;BME280;8341;42.048;24.650;2024-01-11T01:34:04;98219.56;;;-2.36;100.00
16461;BME280;8341;42.048;24.650;2024-01-11T01:36:31;98220.84;;;-2.26;100.00
16461;BME280;8341;42.048;24.650;2024-01-11T01:38:58;98219.75;;;-2.22;100.00
16461;BME280;8341;42.048;24.650;2024-01-11T01:41:25;98219.56;;;-2.36;100.00
16461;BME280;8341;42.048;24.650;2024-01-11T01:43:52;98218.81;;;-2.36;100.00
16461;BME280;8341;42.048;24.650;2024-01-11T01:46:22;98213.09;;;-2.35;100.00
16461;BME280;8341;42.048;24.650;2024-01-11T01:48:50;98212.69;;;-2.37;100.00
16461;BME280;8341;42.048;24.650;2024-01-11T01:51:18;98209.31;;;-2.30;100.00
16461;BME280;8341;42.048;24.650;2024-01-11T01:53:46;98206.38;;;-2.22;100.00
16461;BME280;8341;42.048;24.650;2024-01-11T01:56:13;98199.53;;;-2.19;100.00
16461;BME280;8341;42.048;24.650;2024-01-11T01:58:40;98191.78;;;-2.31;100.00
16461;BME280;8341;42.048;24.650;2024-01-11T02:01:09;98200.66;;;-2.24;100.00
16461;BME280;8341;42.048;24.650;2024-01-11T02:03:37;98195.63;;;-2.29;100.00
16461;BME280;8341;42.048;24.650;2024-01-11T02:06:05;98194.47;;;-2.28;100.00
16461;BME280;8341;42.048;24.650;2024-01-11T02:08:34;98187.72;;;-2.18;100.00
16461;BME280;8341;42.048;24.650;2024-01-11T02:11:02;98194.97;;;-2.19;100.00
16461;BME280;8341;42.048;24.650;2024-01-11T02:13:29;98186.84;;;-2.26;100.00
16461;BME280;8341;42.048;24.650;2024-01-11T02:15:58;98179.56;;;-2.62;100.00
16461;BME280;8341;42.048;24.650;2024-01-11T02:18:25;98180.00;;;-2.57;100.00
16461;BME280;8341;42.048;24.650;2024-01-11T02:20:52;98181.19;;;-2.54;100.00
16461;BME280;8341;42.048;24.650;2024-01-11T02:23:21;98183.53;;;-2.49;100.00
16461;BME280;8341;42.048;24.650;2024-01-11T02:25:52;98177.16;;;-2.41;100.00
16461;BME280;8341;42.048;24.650;2024-01-11T02:28:19;98183.72;;;-2.35;100.00
16461;BME280;8341;42.048;24.650;2024-01-11T02:30:46;98179.00;;;-2.45;100.00
16461;BME280;8341;42.048;24.650;2024-01-11T02:33:13;98173.31;;;-2.43;100.00
16461;BME280;8341;42.048;24.650;2024-01-11T02:35:42;98171.09;;;-2.38;100.00
16461;BME280;8341;42.048;24.650;2024-01-11T02:38:09;98176.16;;;-2.26;100.00
16461;BME280;8341;42.048;24.650;2024-01-11T02:40:37;98166.97;;;-2.32;100.00
16461;BME280;8341;42.048;24.650;2024-01-11T02:43:10;98169.00;;;-2.18;100.00
16461;BME280;8341;42.048;24.650;2024-01-11T02:45:37;98161.22;;;-2.34;100.00
16461;BME280;8341;42.048;24.650;2024-01-11T02:48:04;98170.44;;;-2.28;100.00
16461;BME280;8341;42.048;24.650;2024-01-11T02:50:32;98166.97;;;-2.32;100.00
16461;BME280;8341;42.048;24.650;2024-01-11T02:52:59;98163.91;;;-2.34;100.00
16461;BME280;8341;42.048;24.650;2024-01-11T02:55:26;98158.97;;;-2.28;100.00
16461;BME280;8341;42.048;24.650;2024-01-11T02:57:53;98159.63;;;-2.38;100.00
16461;BME280;8341;42.048;24.650;2024-01-11T03:00:21;98160.66;;;-2.50;100.00
16461;BME280;8341;42.048;24.650;2024-01-11T03:02:48;98165.03;;;-2.35;100.00
16461;BME280;8341;42.048;24.650;2024-01-11T03:05:15;98162.34;;;-2.35;100.00
16461;BME280;8341;42.048;24.650;2024-01-11T03:07:42;98157.97;;;-2.50;100.00
16461;BME280;8341;42.048;24.650;2024-01-11T03:10:09;98156.06;;;-2.49;100.00
16461;BME280;8341;42.048;24.650;2024-01-11T03:12:36;98154.03;;;-2.60;100.00
16461;BME280;8341;42.048;24.650;2024-01-11T03:15:04;98155.25;;;-2.54;100.00
16461;BME280;8341;42.048;24.650;2024-01-11T03:17:33;98151.09;;;-2.51;100.00
16461;BME280;8341;42.048;24.650;2024-01-11T03:20:00;98145.47;;;-2.42;100.00
16461;BME280;8341;42.048;24.650;2024-01-11T03:22:29;98152.31;;;-2.45;100.00
16461;BME280;8341;42.048;24.650;2024-01-11T03:24:56;98143.28;;;-2.33;100.00
16461;BME280;8341;42.048;24.650;2024-01-11T03:27:23;98151.66;;;-2.35;100.00
16461;BME280;8341;42.048;24.650;2024-01-11T03:29:50;98147.63;;;-2.52;100.00
16461;BME280;8341;42.048;24.650;2024-01-11T03:32:17;98138.88;;;-2.52;100.00
16461;BME280;8341;42.048;24.650;2024-01-11T03:34:46;98145.03;;;-2.48;100.00
16461;BME280;8341;42.048;24.650;2024-01-11T03:37:13;98146.25;;;-2.42;100.00
16461;BME280;8341;42.048;24.650;2024-01-11T03:39:40;98139.28;;;-2.50;100.00
16461;BME280;8341;42.048;24.650;2024-01-11T03:42:06;98139.31;;;-2.46;100.00
16461;BME280;8341;42.048;24.650;2024-01-11T03:44:36;98135.75;;;-2.58;100.00
16461;BME280;8341;42.048;24.650;2024-01-11T03:47:04;98134.25;;;-2.55;100.00
16461;BME280;8341;42.048;24.650;2024-01-11T03:49:31;98124.84;;;-2.45;100.00
16461;BME280;8341;42.048;24.650;2024-01-11T03:51:59;98130.25;;;-2.38;100.00
16461;BME280;8341;42.048;24.650;2024-01-11T03:54:26;98123.00;;;-2.38;100.00
16461;BME280;8341;42.048;24.650;2024-01-11T03:56:53;98121.47;;;-2.39;100.00
16461;BME280;8341;42.048;24.650;2024-01-11T03:59:20;98124.78;;;-2.49;100.00
16461;BME280;8341;42.048;24.650;2024-01-11T04:01:47;98114.91;;;-2.45;100.00
16461;BME280;8341;42.048;24.650;2024-01-11T04:04:14;98117.22;;;-2.43;100.00
16461;BME280;8341;42.048;24.650;2024-01-11T04:06:41;98105.75;;;-2.47;100.00
16461;BME280;8341;42.048;24.650;2024-01-11T04:09:09;98115.66;;;-2.48;100.00
16461;BME280;8341;42.048;24.650;2024-01-11T04:11:36;98115.59;;;-2.52;100.00
16461;BME280;8341;42.048;24.650;2024-01-11T04:14:03;98109.00;;;-2.61;100.00
16461;BME280;8341;42.048;24.650;2024-01-11T04:16:31;98102.50;;;-2.64;100.00
16461;BME280;8341;42.048;24.650;2024-01-11T04:18:58;98099.94;;;-2.53;100.00
16461;BME280;8341;42.048;24.650;2024-01-11T04:21:26;98106.41;;;-2.54;100.00
16461;BME280;8341;42.048;24.650;2024-01-11T04:23:54;98108.69;;;-2.56;100.00
16461;BME280;8341;42.048;24.650;2024-01-11T04:26:23;98115.25;;;-2.50;100.00
16461;BME280;8341;42.048;24.650;2024-01-11T04:28:51;98109.00;;;-2.61;100.00
16461;BME280;8341;42.048;24.650;2024-01-11T04:31:18;98105.63;;;-2.58;100.00
16461;BME280;8341;42.048;24.650;2024-01-11T04:33:46;98101.41;;;-2.59;100.00
16461;BME280;8341;42.048;24.650;2024-01-11T04:36:13;98104.00;;;-2.66;100.00
16461;BME280;8341;42.048;24.650;2024-01-11T04:38:40;98109.00;;;-2.61;100.00
16461;BME280;8341;42.048;24.650;2024-01-11T04:41:10;98109.34;;;-2.66;100.00
16461;BME280;8341;42.048;24.650;2024-01-11T04:43:39;98111.69;;;-2.61;100.00
16461;BME280;8341;42.048;24.650;2024-01-11T04:46:13;98106.38;;;-2.58;100.00
16461;BME280;8341;42.048;24.650;2024-01-11T04:48:40;98108.53;;;-2.70;100.00
16461;BME280;8341;42.048;24.650;2024-01-11T04:51:07;98102.34;;;-2.78;100.00
16461;BME280;8341;42.048;24.650;2024-01-11T04:53:36;98107.25;;;-2.80;100.00
16461;BME280;8341;42.048;24.650;2024-01-11T04:56:05;98105.13;;;-2.67;100.00
16461;BME280;8341;42.048;24.650;2024-01-11T04:58:32;98101.06;;;-2.54;100.00
16461;BME280;8341;42.048;24.650;2024-01-11T05:01:01;98094.22;;;-2.55;100.00
16461;BME280;8341;42.048;24.650;2024-01-11T05:03:28;98085.47;;;-2.52;100.00
16461;BME280;8341;42.048;24.650;2024-01-11T05:05:55;98088.47;;;-2.57;100.00
16461;BME280;8341;42.048;24.650;2024-01-11T05:08:22;98085.09;;;-2.50;100.00
16461;BME280;8341;42.048;24.650;2024-01-11T05:10:50;98082.81;;;-2.52;100.00
16461;BME280;8341;42.048;24.650;2024-01-11T05:13:17;98082.97;;;-2.71;100.00
16461;BME280;8341;42.048;24.650;2024-01-11T05:15:44;98078.03;;;-2.69;100.00
16461;BME280;8341;42.048;24.650;2024-01-11T05:18:12;98069.34;;;-2.63;100.00
16461;BME280;8341;42.048;24.650;2024-01-11T05:20:39;98072.13;;;-2.52;100.00
16461;BME280;8341;42.048;24.650;2024-01-11T05:23:07;98073.63;;;-2.55;100.00
16461;BME280;8341;42.048;24.650;2024-01-11T05:25:35;98072.91;;;-2.48;100.00
16461;BME280;8341;42.048;24.650;2024-01-11T05:28:03;98075.19;;;-2.50;100.00
16461;BME280;8341;42.048;24.650;2024-01-11T05:30:30;98074.28;;;-2.65;100.00
16461;BME280;8341;42.048;24.650;2024-01-11T05:32:57;98072.78;;;-2.62;100.00
16461;BME280;8341;42.048;24.650;2024-01-11T05:35:26;98074.22;;;-2.68;100.00
16461;BME280;8341;42.048;24.650;2024-01-11T05:37:53;98074.31;;;-2.61;100.00
16461;BME280;8341;42.048;24.650;2024-01-11T05:40:21;98078.31;;;-2.78;100.00
16461;BME280;8341;42.048;24.650;2024-01-11T05:42:48;98066.53;;;-2.73;100.00
16461;BME280;8341;42.048;24.650;2024-01-11T05:45:15;98076.19;;;-2.65;100.00
16461;BME280;8341;42.048;24.650;2024-01-11T05:47:43;98069.78;;;-2.57;100.00
16461;BME280;8341;42.048;24.650;2024-01-11T05:50:10;98074.78;;;-2.52;100.00
16461;BME280;8341;42.048;24.650;2024-01-11T05:52:39;98076.66;;;-2.56;100.00
16461;BME280;8341;42.048;24.650;2024-01-11T05:55:07;98077.47;;;-2.52;100.00
16461;BME280;8341;42.048;24.650;2024-01-11T05:57:34;98079.69;;;-2.58;100.00
16461;BME280;8341;42.048;24.650;2024-01-11T06:00:01;98079.63;;;-2.61;100.00
16461;BME280;8341;42.048;24.650;2024-01-11T06:02:28;98057.88;;;-2.63;100.00
16461;BME280;8341;42.048;24.650;2024-01-11T06:04:57;98066.63;;;-2.66;100.00
16461;BME280;8341;42.048;24.650;2024-01-11T06:07:24;98063.63;;;-2.61;100.00
16461;BME280;8341;42.048;24.650;2024-01-11T06:09:52;98061.41;;;-2.56;100.00
16461;BME280;8341;42.048;24.650;2024-01-11T06:12:19;98061.78;;;-2.54;100.00
16461;BME280;8341;42.048;24.650;2024-01-11T06:14:46;98063.06;;;-2.44;100.00
16461;BME280;8341;42.048;24.650;2024-01-11T06:17:13;98052.38;;;-2.44;100.00
16461;BME280;8341;42.048;24.650;2024-01-11T06:19:40;98039.81;;;-2.40;100.00
16461;BME280;8341;42.048;24.650;2024-01-11T06:22:07;98055.97;;;-2.26;100.00
16461;BME280;8341;42.048;24.650;2024-01-11T06:24:34;98057.56;;;-2.21;100.00
16461;BME280;8341;42.048;24.650;2024-01-11T06:27:03;98058.72;;;-2.19;100.00
16461;BME280;8341;42.048;24.650;2024-01-11T06:29:30;98059.44;;;-2.22;100.00
16461;BME280;8341;42.048;24.650;2024-01-11T06:31:57;98055.44;;;-2.42;100.00
16461;BME280;8341;42.048;24.650;2024-01-11T06:34:24;98050.06;;;-2.45;100.00
16461;BME280;8341;42.048;24.650;2024-01-11T06:36:51;98050.22;;;-2.31;100.00
16461;BME280;8341;42.048;24.650;2024-01-11T06:39:18;98046.88;;;-2.18;100.00
16461;BME280;8341;42.048;24.650;2024-01-11T06:41:44;98048.09;;;-2.12;100.00
16461;BME280;8341;42.048;24.650;2024-01-11T06:44:13;98042.84;;;-1.98;100.00
16461;BME280;8341;42.048;24.650;2024-01-11T06:46:40;98034.19;;;-1.87;100.00
16461;BME280;8341;42.048;24.650;2024-01-11T06:49:07;98041.47;;;-1.81;100.00
16461;BME280;8341;42.048;24.650;2024-01-11T06:51:34;98031.59;;;-1.73;100.00
16461;BME280;8341;42.048;24.650;2024-01-11T06:54:01;98036.63;;;-1.65;100.00
16461;BME280;8341;42.048;24.650;2024-01-11T06:56:28;98033.25;;;-1.51;100.00
16461;BME280;8341;42.048;24.650;2024-01-11T06:58:55;98036.34;;;-1.49;100.00
16461;BME280;8341;42.048;24.650;2024-01-11T07:01:23;98032.25;;;-1.26;100.00
16461;BME280;8341;42.048;24.650;2024-01-11T07:03:51;98037.31;;;-1.13;100.00
16461;BME280;8341;42.048;24.650;2024-01-11T07:06:18;98033.56;;;-0.95;100.00
16461;BME280;8341;42.048;24.650;2024-01-11T07:08:45;98031.31;;;-0.82;100.00
16461;BME280;8341;42.048;24.650;2024-01-11T07:11:12;98029.78;;;-0.83;100.00
16461;BME280;8341;42.048;24.650;2024-01-11T07:13:39;98040.91;;;-0.74;99.55
16461;BME280;8341;42.048;24.650;2024-01-11T07:16:06;98029.84;;;-0.66;99.62
16461;BME280;8341;42.048;24.650;2024-01-11T07:18:34;98042.84;;;-0.64;99.33
16461;BME280;8341;42.048;24.650;2024-01-11T07:21:01;98039.06;;;-0.52;98.64
16461;BME280;8341;42.048;24.650;2024-01-11T07:23:29;98044.44;;;-0.42;98.22
16461;BME280;8341;42.048;24.650;2024-01-11T07:25:56;98039.88;;;-0.34;98.13
16461;BME280;8341;42.048;24.650;2024-01-11T07:28:23;98042.94;;;-0.29;97.83
16461;BME280;8341;42.048;24.650;2024-01-11T07:30:51;98044.09;;;-0.19;98.05
16461;BME280;8341;42.048;24.650;2024-01-11T07:33:18;98039.91;;;-0.13;97.93
16461;BME280;8341;42.048;24.650;2024-01-11T07:35:47;98037.97;;;-0.20;97.95
16461;BME280;8341;42.048;24.650;2024-01-11T07:38:14;98040.94;;;-0.64;95.35
16461;BME280;8341;42.048;24.650;2024-01-11T07:40:41;98034.47;;;-0.48;95.86
16461;BME280;8341;42.048;24.650;2024-01-11T07:43:08;98027.16;;;-0.66;94.97
16461;BME280;8341;42.048;24.650;2024-01-11T07:45:35;98022.19;;;-0.67;94.63
16461;BME280;8341;42.048;24.650;2024-01-11T07:48:02;98021.06;;;-0.63;94.99
16461;BME280;8341;42.048;24.650;2024-01-11T07:50:30;98027.88;;;-0.83;94.98
16461;BME280;8341;42.048;24.650;2024-01-11T07:52:59;98023.63;;;-0.91;95.83
16461;BME280;8341;42.048;24.650;2024-01-11T07:55:26;98020.56;;;-0.93;95.88
16461;BME280;8341;42.048;24.650;2024-01-11T07:57:53;98017.47;;;-1.02;95.69
16461;BME280;8341;42.048;24.650;2024-01-11T08:00:21;98014.44;;;-0.90;95.85
16461;BME280;8341;42.048;24.650;2024-01-11T08:02:48;98012.25;;;-0.63;95.34
16461;BME280;8341;42.048;24.650;2024-01-11T08:05:15;98008.47;;;-0.34;95.60
16461;BME280;8341;42.048;24.650;2024-01-11T08:07:42;98007.34;;;-0.26;100.00
16461;BME280;8341;42.048;24.650;2024-01-11T08:10:11;98003.53;;;0.00;100.00
16461;BME280;8341;42.048;24.650;2024-01-11T08:12:38;97999.28;;;0.17;100.00
16461;BME280;8341;42.048;24.650;2024-01-11T08:15:05;98000.03;;;0.35;98.67
16461;BME280;8341;42.048;24.650;2024-01-11T08:17:38;97998.84;;;0.46;97.95
16461;BME280;8341;42.048;24.650;2024-01-11T08:20:05;97993.47;;;0.60;100.00
16461;BME280;8341;42.048;24.650;2024-01-11T08:22:33;97989.97;;;0.81;100.00
16461;BME280;8341;42.048;24.650;2024-01-11T08:25:02;97994.94;;;0.86;100.00
16461;BME280;8341;42.048;24.650;2024-01-11T08:27:31;97990.22;;;1.08;99.18
16461;BME280;8341;42.048;24.650;2024-01-11T08:29:58;97985.94;;;1.24;98.58
16461;BME280;8341;42.048;24.650;2024-01-11T08:32:26;97987.03;;;0.33;93.82
16461;BME280;8341;42.048;24.650;2024-01-11T08:34:54;97983.50;;;0.57;94.24
16461;BME280;8341;42.048;24.650;2024-01-11T08:37:21;97987.59;;;0.94;93.25
16461;BME280;8341;42.048;24.650;2024-01-11T08:39:48;97989.13;;;1.02;93.07
16461;BME280;8341;42.048;24.650;2024-01-11T08:42:15;97977.78;;;0.41;94.19
16461;BME280;8341;42.048;24.650;2024-01-11T08:44:45;97974.72;;;0.43;95.32
16461;BME280;8341;42.048;24.650;2024-01-11T08:47:12;97972.44;;;0.34;95.55
16461;BME280;8341;42.048;24.650;2024-01-11T08:49:40;97968.66;;;0.07;97.05
16461;BME280;8341;42.048;24.650;2024-01-11T08:52:07;97964.81;;;0.12;96.63
16461;BME280;8341;42.048;24.650;2024-01-11T08:54:34;97952.56;;;-0.18;98.63
16461;BME280;8341;42.048;24.650;2024-01-11T08:57:02;97956.03;;;-0.31;100.00
16461;BME280;8341;42.048;24.650;2024-01-11T08:59:29;97951.03;;;-0.43;100.00
16461;BME280;8341;42.048;24.650;2024-01-11T09:01:57;97939.94;;;-0.35;100.00
16461;BME280;8341;42.048;24.650;2024-01-11T09:04:24;97938.03;;;-0.24;100.00
16461;BME280;8341;42.048;24.650;2024-01-11T09:06:54;97931.13;;;-0.04;100.00
16461;BME280;8341;42.048;24.650;2024-01-11T09:09:21;97933.03;;;0.03;100.00
16461;BME280;8341;42.048;24.650;2024-01-11T09:11:48;97924.22;;;0.20;100.00
16461;BME280;8341;42.048;24.650;2024-01-11T09:14:15;97929.53;;;0.34;100.00
16461;BME280;8341;42.048;24.650;2024-01-11T09:16:43;97929.16;;;0.36;99.90
16461;BME280;8341;42.048;24.650;2024-01-11T09:19:12;97924.53;;;0.40;100.00
16461;BME280;8341;42.048;24.650;2024-01-11T09:21:39;97928.69;;;0.55;99.31
16461;BME280;8341;42.048;24.650;2024-01-11T09:24:07;97910.31;;;0.46;97.66
16461;BME280;8341;42.048;24.650;2024-01-11T09:26:34;97920.59;;;0.66;98.02
16461;BME280;8341;42.048;24.650;2024-01-11T09:29:02;97917.88;;;0.73;96.35
16461;BME280;8341;42.048;24.650;2024-01-11T09:31:29;97917.16;;;0.65;97.09
16461;BME280;8341;42.048;24.650;2024-01-11T09:33:56;97914.75;;;0.92;96.45
16461;BME280;8341;42.048;24.650;2024-01-11T09:36:25;97910.81;;;1.07;94.42
16461;BME280;8341;42.048;24.650;2024-01-11T09:38:52;97906.13;;;1.21;92.83
16461;BME280;8341;42.048;24.650;2024-01-11T09:41:19;97909.97;;;1.20;91.78
16461;BME280;8341;42.048;24.650;2024-01-11T09:43:48;97900.81;;;1.11;91.77
16461;BME280;8341;42.048;24.650;2024-01-11T09:46:18;97895.72;;;1.27;92.13
16461;BME280;8341;42.048;24.650;2024-01-11T09:48:46;97879.09;;;1.46;92.20
16461;BME280;8341;42.048;24.650;2024-01-11T09:51:15;97872.38;;;1.68;90.33
16461;BME280;8341;42.048;24.650;2024-01-11T09:53:44;97867.59;;;1.86;89.99
16461;BME280;8341;42.048;24.650;2024-01-11T09:56:11;97862.28;;;1.79;88.04
16461;BME280;8341;42.048;24.650;2024-01-11T09:58:41;97862.84;;;1.60;87.73
16461;BME280;8341;42.048;24.650;2024-01-11T10:01:11;97857.72;;;1.76;88.91
16461;BME280;8341;42.048;24.650;2024-01-11T10:03:39;97853.00;;;2.21;88.09
16461;BME280;8341;42.048;24.650;2024-01-11T10:06:07;97845.81;;;2.45;85.40
16461;BME280;8341;42.048;24.650;2024-01-11T10:08:35;97851.63;;;2.43;85.19
16461;BME280;8341;42.048;24.650;2024-01-11T10:11:04;97837.72;;;2.75;84.34
16461;BME280;8341;42.048;24.650;2024-01-11T10:13:31;97850.50;;;2.98;86.37
16461;BME280;8341;42.048;24.650;2024-01-11T10:16:09;97844.97;;;2.82;84.00
16461;BME280;8341;42.048;24.650;2024-01-11T10:18:39;97815.88;;;2.39;84.22
16461;BME280;8341;42.048;24.650;2024-01-11T10:21:06;97816.56;;;2.47;83.79
16461;BME280;8341;42.048;24.650;2024-01-11T10:23:35;97824.25;;;2.48;80.90
16461;BME280;8341;42.048;24.650;2024-01-11T10:26:04;97818.53;;;2.43;81.40
16461;BME280;8341;42.048;24.650;2024-01-11T10:28:33;97816.78;;;2.29;81.20
16461;BME280;8341;42.048;24.650;2024-01-11T10:31:03;97817.38;;;2.44;84.54
16461;BME280;8341;42.048;24.650;2024-01-11T10:33:30;97804.09;;;2.30;84.34
16461;BME280;8341;42.048;24.650;2024-01-11T10:35:57;97802.13;;;2.34;83.95
16461;BME280;8341;42.048;24.650;2024-01-11T10:38:25;97800.50;;;2.40;84.64
16461;BME280;8341;42.048;24.650;2024-01-11T10:40:53;97799.75;;;2.39;85.06
16461;BME280;8341;42.048;24.650;2024-01-11T10:43:23;97797.47;;;2.38;82.78
16461;BME280;8341;42.048;24.650;2024-01-11T10:45:51;97787.94;;;2.30;83.88
16461;BME280;8341;42.048;24.650;2024-01-11T10:48:21;97772.03;;;2.42;84.86
16461;BME280;8341;42.048;24.650;2024-01-11T10:50:52;97773.03;;;2.52;83.55
16461;BME280;8341;42.048;24.650;2024-01-11T10:53:25;97777.28;;;2.80;84.18
16461;BME280;8341;42.048;24.650;2024-01-11T10:55:55;97765.81;;;2.99;81.52
16461;BME280;8341;42.048;24.650;2024-01-11T10:58:26;97762.38;;;3.22;80.90
16461;BME280;8341;42.048;24.650;2024-01-11T11:00:54;97761.44;;;3.08;84.48
16461;BME280;8341;42.048;24.650;2024-01-11T11:03:23;97750.31;;;2.57;84.62
16461;BME280;8341;42.048;24.650;2024-01-11T11:05:53;97754.84;;;2.86;86.00
16461;BME280;8341;42.048;24.650;2024-01-11T11:08:22;97748.19;;;2.94;85.48
16461;BME280;8341;42.048;24.650;2024-01-11T11:10:51;97741.41;;;2.86;85.49
16461;BME280;8341;42.048;24.650;2024-01-11T11:13:21;97718.31;;;2.85;86.09
16461;BME280;8341;42.048;24.650;2024-01-11T11:15:50;97736.44;;;3.31;83.80
16461;BME280;8341;42.048;24.650;2024-01-11T11:18:18;97732.50;;;3.36;81.89
16461;BME280;8341;42.048;24.650;2024-01-11T11:20:47;97728.31;;;3.54;82.75
16461;BME280;8341;42.048;24.650;2024-01-11T11:23:15;97732.41;;;3.82;81.20
16461;BME280;8341;42.048;24.650;2024-01-11T11:25:46;97731.13;;;3.47;81.92
16461;BME280;8341;42.048;24.650;2024-01-11T11:28:14;97733.91;;;3.63;82.22
16461;BME280;8341;42.048;24.650;2024-01-11T11:30:42;97721.53;;;3.86;81.49
16461;BME280;8341;42.048;24.650;2024-01-11T11:33:18;97725.13;;;4.18;78.62
16461;BME280;8341;42.048;24.650;2024-01-11T11:35:46;97721.88;;;4.07;78.51
16461;BME280;8341;42.048;24.650;2024-01-11T11:38:23;97712.53;;;4.12;77.08
16461;BME280;8341;42.048;24.650;2024-01-11T11:40:53;97705.19;;;4.12;78.12
16461;BME280;8341;42.048;24.650;2024-01-11T11:43:21;97703.00;;;4.07;76.90
16461;BME280;8341;42.048;24.650;2024-01-11T11:45:49;97699.16;;;4.24;76.80
16461;BME280;8341;42.048;24.650;2024-01-11T11:48:48;97696.91;;;4.39;76.47
16461;BME280;8341;42.048;24.650;2024-01-11T11:51:17;97689.72;;;4.32;76.91
16461;BME280;8341;42.048;24.650;2024-01-11T11:53:46;97671.97;;;4.15;77.68
16461;BME280;8341;42.048;24.650;2024-01-11T11:56:13;97676.34;;;4.09;75.67
16461;BME280;8341;42.048;24.650;2024-01-11T11:58:43;97663.06;;;3.99;78.33
16461;BME280;8341;42.048;24.650;2024-01-11T12:01:11;97658.00;;;4.20;78.46
16461;BME280;8341;42.048;24.650;2024-01-11T12:03:40;97647.25;;;3.81;79.22
16461;BME280;8341;42.048;24.650;2024-01-11T12:06:10;97645.88;;;4.09;79.13
16461;BME280;8341;42.048;24.650;2024-01-11T12:08:37;97645.50;;;4.10;77.88
16461;BME280;8341;42.048;24.650;2024-01-11T12:11:05;97637.44;;;3.71;79.17
16461;BME280;8341;42.048;24.650;2024-01-11T12:13:33;97635.31;;;3.98;80.17
16461;BME280;8341;42.048;24.650;2024-01-11T12:16:00;97625.75;;;4.13;79.24
16461;BME280;8341;42.048;24.650;2024-01-11T12:18:27;97623.59;;;4.40;77.20
16461;BME280;8341;42.048;24.650;2024-01-11T12:20:54;97625.44;;;4.43;78.58
16461;BME280;8341;42.048;24.650;2024-01-11T12:23:23;97617.00;;;4.25;78.45
16461;BME280;8341;42.048;24.650;2024-01-11T12:25:50;97614.13;;;4.49;75.81
16461;BME280;8341;42.048;24.650;2024-01-11T12:28:17;97610.22;;;4.82;77.28
16461;BME280;8341;42.048;24.650;2024-01-11T12:30:45;97609.72;;;4.55;76.13
16461;BME280;8341;42.048;24.650;2024-01-11T12:33:12;97595.06;;;4.23;78.09
16461;BME280;8341;42.048;24.650;2024-01-11T12:35:39;97600.22;;;4.18;78.78
16461;BME280;8341;42.048;24.650;2024-01-11T12:38:06;97594.06;;;4.33;78.24
16461;BME280;8341;42.048;24.650;2024-01-11T12:40:36;97589.16;;;4.28;77.76
16461;BME280;8341;42.048;24.650;2024-01-11T12:43:04;97581.56;;;4.23;78.53
16461;BME280;8341;42.048;24.650;2024-01-11T12:45:31;97590.66;;;4.29;77.19
16461;BME280;8341;42.048;24.650;2024-01-11T12:47:59;97582.25;;;4.27;77.37
16461;BME280;8341;42.048;24.650;2024-01-11T12:50:26;97579.09;;;4.29;77.53
16461;BME280;8341;42.048;24.650;2024-01-11T12:53:10;97574.88;;;4.12;79.30
16461;BME280;8341;42.048;24.650;2024-01-11T12:55:45;97572.63;;;4.10;77.53
16461;BME280;8341;42.048;24.650;2024-01-11T12:58:12;97577.59;;;4.28;79.04
16461;BME280;8341;42.048;24.650;2024-01-11T13:00:39;97583.78;;;4.28;77.85